createdAt,value
2022-11-24T00:01:08.775Z,92305.81
2022-11-24T00:03:36.739Z,92303.91
2022-11-24T00:06:12.155Z,92310.37
2022-11-24T00:08:41.349Z,92311.81
2022-11-24T00:11:11.060Z,92318.47
2022-11-24T00:13:42.051Z,92319.94
2022-11-24T00:16:14.716Z,92316.88
2022-11-24T00:18:44.480Z,92324.19
2022-11-24T00:21:13.197Z,92325.22
2022-11-24T00:23:40.805Z,92321.31
2022-11-24T00:26:17.009Z,92325.47
2022-11-24T00:28:46.509Z,92329.19
2022-11-24T00:31:24.606Z,92335.97
2022-11-24T00:33:55.037Z,92337.53
2022-11-24T00:36:24.396Z,92336.97
2022-11-24T00:39:00.095Z,92336.28
2022-11-24T00:41:28.656Z,92347.13
2022-11-24T00:43:56.919Z,92343.28
2022-11-24T00:46:24.666Z,92344.88
2022-11-24T00:48:52.230Z,92350.84
2022-11-24T00:51:22.954Z,92348.84
2022-11-24T00:53:50.367Z,92360.31
2022-11-24T00:56:17.759Z,92359.06
2022-11-24T00:58:45.817Z,92357.63
2022-11-24T01:01:16.610Z,92358.41
2022-11-24T01:03:44.378Z,92352.66
2022-11-24T01:06:15.852Z,92364.72
2022-11-24T01:08:43.416Z,92356.69
2022-11-24T01:11:18.128Z,92355.13
2022-11-24T01:13:49.751Z,92350.72
2022-11-24T01:16:23.387Z,92348.87
2022-11-24T01:18:51.213Z,92359.03
2022-11-24T01:21:19.107Z,92359.03
2022-11-24T01:23:47.318Z,92360.84
2022-11-24T01:26:18.234Z,92366.25
2022-11-24T01:28:47.674Z,92367.72
2022-11-24T01:31:16.441Z,92360.72
2022-11-24T01:33:44.027Z,92362.41
2022-11-24T01:36:11.559Z,92358.13
2022-11-24T01:38:39.172Z,92354.94
2022-11-24T01:41:08.206Z,92355.31
2022-11-24T01:43:35.489Z,92350.38
2022-11-24T01:46:34.264Z,92349.28
2022-11-24T01:49:18.457Z,92351.88
2022-11-24T01:51:54.866Z,92354.47
2022-11-24T01:54:36.488Z,92341.97
2022-11-24T01:57:12.926Z,92347.44
2022-11-24T01:59:41.902Z,92353.44
2022-11-24T02:02:09.738Z,92353.44
2022-11-24T02:04:38.330Z,92353.16
2022-11-24T02:07:07.434Z,92361.06
2022-11-24T02:09:48.020Z,92356.94
2022-11-24T02:12:15.580Z,92353.34
2022-11-24T02:14:44.837Z,92351.75
2022-11-24T02:17:12.089Z,92352.09
2022-11-24T02:19:39.611Z,92359.09
2022-11-24T02:22:22.665Z,92352.25
2022-11-24T02:24:56.196Z,92346.22
2022-11-24T02:27:23.572Z,92360.72
2022-11-24T02:29:52.167Z,92364.25
2022-11-24T02:32:20.610Z,92355.53
2022-11-24T02:34:47.819Z,92354.91
2022-11-24T02:37:15.370Z,92363.44
2022-11-24T02:39:42.682Z,92365.00
2022-11-24T02:42:13.805Z,92361.72
2022-11-24T02:44:47.183Z,92363.16
2022-11-24T02:47:14.366Z,92368.97
2022-11-24T02:49:42.020Z,92371.87
2022-11-24T02:52:09.525Z,92367.34
2022-11-24T02:54:37.156Z,92371.87
2022-11-24T02:57:05.143Z,92369.13
2022-11-24T02:59:32.560Z,92362.22
2022-11-24T03:02:00.011Z,92363.31
2022-11-24T03:04:27.748Z,92361.94
2022-11-24T03:06:55.022Z,92365.72
2022-11-24T03:09:22.273Z,92365.41
2022-11-24T03:11:49.862Z,92361.19
2022-11-24T03:14:17.173Z,92368.34
2022-11-24T03:16:44.520Z,92371.87
2022-11-24T03:19:12.347Z,92366.78
2022-11-24T03:21:39.837Z,92369.72
2022-11-24T03:24:07.170Z,92371.75
2022-11-24T03:26:35.615Z,92372.37
2022-11-24T03:29:03.031Z,92372.91
2022-11-24T03:31:30.330Z,92364.09
2022-11-24T03:33:58.092Z,92372.19
2022-11-24T03:36:25.576Z,92376.59
2022-11-24T03:38:53.067Z,92383.16
2022-11-24T03:41:20.736Z,92381.91
2022-11-24T03:43:47.922Z,92386.78
2022-11-24T03:46:17.042Z,92388.44
2022-11-24T03:48:46.070Z,92389.56
2022-11-24T03:51:13.349Z,92396.75
2022-11-24T03:53:40.896Z,92400.84
2022-11-24T03:56:08.578Z,92399.38
2022-11-24T03:58:35.967Z,92405.09
2022-11-24T04:01:03.782Z,92396.31
2022-11-24T04:03:31.442Z,92407.44
2022-11-24T04:05:58.914Z,92402.06
2022-11-24T04:08:26.229Z,92407.81
2022-11-24T04:10:54.653Z,92417.09
2022-11-24T04:13:25.620Z,92417.28
2022-11-24T04:15:53.715Z,92417.59
2022-11-24T04:18:22.177Z,92417.87
2022-11-24T04:20:51.076Z,92425.06
2022-11-24T04:23:18.878Z,92422.19
2022-11-24T04:25:46.942Z,92417.37
2022-11-24T04:28:14.168Z,92418.59
2022-11-24T04:30:44.981Z,92420.59
2022-11-24T04:33:13.104Z,92421.59
2022-11-24T04:35:40.419Z,92424.87
2022-11-24T04:38:07.744Z,92431.22
2022-11-24T04:40:35.361Z,92438.56
2022-11-24T04:43:02.688Z,92429.53
2022-11-24T04:45:29.953Z,92434.25
2022-11-24T04:47:57.543Z,92434.88
2022-11-24T04:50:24.823Z,92435.41
2022-11-24T04:52:52.687Z,92436.84
2022-11-24T04:55:20.380Z,92437.81
2022-11-24T04:57:47.917Z,92445.63
2022-11-24T05:00:15.726Z,92447.78
2022-11-24T05:02:43.348Z,92445.06
2022-11-24T05:05:10.842Z,92452.88
2022-11-24T06:09:54.950Z,92505.94
2022-11-24T06:12:22.980Z,92505.94
2022-11-24T06:14:50.338Z,92510.28
2022-11-24T06:17:17.582Z,92511.41
2022-11-24T06:19:48.097Z,92512.31
2022-11-24T06:22:15.413Z,92505.41
2022-11-24T06:24:42.760Z,92502.91
2022-11-24T06:27:10.403Z,92511.63
2022-11-24T06:29:38.023Z,92513.78
2022-11-24T06:32:06.048Z,92522.56
2022-11-24T06:34:33.862Z,92524.00
2022-11-24T06:37:01.427Z,92526.03
2022-11-24T06:39:28.856Z,92532.37
2022-11-24T06:41:56.559Z,92528.78
2022-11-24T06:44:24.253Z,92536.03
2022-11-24T06:46:51.629Z,92535.94
2022-11-24T06:49:19.401Z,92537.56
2022-11-24T06:51:46.745Z,92541.22
2022-11-24T06:54:20.213Z,92542.56
2022-11-24T06:56:48.158Z,92548.00
2022-11-24T06:59:21.694Z,92550.41
2022-11-24T07:01:49.477Z,92545.69
2022-11-24T07:04:16.999Z,92550.66
2022-11-24T07:09:55.213Z,92550.22
2022-11-24T07:12:24.421Z,92550.22
2022-11-24T07:14:51.789Z,92554.06
2022-11-24T07:17:19.081Z,92559.47
2022-11-24T07:19:46.738Z,92560.47
2022-11-24T07:22:14.098Z,92566.47
2022-11-24T07:24:41.705Z,92565.00
2022-11-24T07:27:09.341Z,92562.28
2022-11-24T07:29:36.697Z,92563.78
2022-11-24T07:32:05.876Z,92556.09
2022-11-24T07:34:33.839Z,92561.72
2022-11-24T07:37:01.512Z,92569.75
2022-11-24T07:39:28.941Z,92566.16
2022-11-24T07:41:58.154Z,92573.16
2022-11-24T07:44:25.605Z,92568.19
2022-11-24T07:46:53.563Z,92572.03
2022-11-24T07:49:21.338Z,92573.28
2022-11-24T07:51:48.723Z,92569.28
2022-11-24T07:54:15.990Z,92577.50
2022-11-24T07:56:43.715Z,92573.97
2022-11-24T07:59:11.050Z,92577.59
2022-11-24T08:01:41.256Z,92575.72
2022-11-24T08:04:09.092Z,92586.59
2022-11-24T08:06:40.863Z,92583.88
2022-11-24T08:09:12.233Z,92590.38
2022-11-24T08:11:39.661Z,92589.59
2022-11-24T08:14:07.106Z,92590.00
2022-11-24T08:16:34.828Z,92589.44
2022-11-24T08:19:02.317Z,92593.72
2022-11-24T08:21:29.742Z,92604.47
2022-11-24T08:23:59.056Z,92607.16
2022-11-24T08:26:27.110Z,92605.97
2022-11-24T08:28:57.779Z,92607.16
2022-11-24T08:31:33.183Z,92617.56
2022-11-24T08:34:02.231Z,92619.50
2022-11-24T08:36:30.441Z,92625.22
2022-11-24T08:39:00.106Z,92618.94
2022-11-24T08:41:28.926Z,92635.22
2022-11-24T08:43:56.759Z,92636.13
2022-11-24T08:46:24.232Z,92637.38
2022-11-24T08:48:53.329Z,92635.12
2022-11-24T08:51:26.444Z,92642.84
2022-11-24T08:53:58.752Z,92637.06
2022-11-24T08:56:28.384Z,92651.47
2022-11-24T08:58:56.258Z,92655.88
2022-11-24T09:01:23.938Z,92655.75
2022-11-24T09:03:52.408Z,92661.19
2022-11-24T09:06:25.286Z,92658.81
2022-11-24T09:08:56.382Z,92659.03
2022-11-24T09:11:25.384Z,92667.28
2022-11-24T09:13:54.821Z,92674.69
2022-11-24T09:16:27.825Z,92679.03
2022-11-24T09:19:01.147Z,92687.25
2022-11-24T09:21:30.520Z,92680.56
2022-11-24T09:23:58.560Z,92683.25
2022-11-24T09:26:31.487Z,92681.63
2022-11-24T09:29:01.199Z,92681.53
2022-11-24T09:31:31.559Z,92677.34
2022-11-24T09:33:59.774Z,92677.59
2022-11-24T09:36:28.393Z,92683.47
2022-11-24T09:38:55.990Z,92681.63
2022-11-24T09:41:39.696Z,92678.25
2022-11-24T09:44:37.932Z,92673.91
2022-11-24T09:47:17.531Z,92678.84
2022-11-24T09:49:57.134Z,92676.69
2022-11-24T09:53:01.290Z,92680.31
2022-11-24T09:55:54.953Z,92686.50
2022-11-24T09:58:48.618Z,92683.28
2022-11-24T10:01:19.165Z,92689.53
2022-11-24T10:03:59.847Z,92687.41
2022-11-24T10:06:41.149Z,92691.72
2022-11-24T10:09:31.527Z,92695.00
2022-11-24T10:12:33.295Z,92693.06
2022-11-24T10:15:56.316Z,92690.78
2022-11-24T10:18:49.247Z,92696.25
2022-11-24T10:21:55.289Z,92687.69
2022-11-24T10:24:44.516Z,92688.41
2022-11-24T10:27:19.414Z,92691.16
2022-11-24T10:29:51.803Z,92694.91
2022-11-24T10:32:31.032Z,92689.41
2022-11-24T10:35:16.310Z,92695.34
2022-11-24T10:37:58.422Z,92696.78
2022-11-24T10:43:17.340Z,92694.50
2022-11-24T10:45:45.926Z,92693.94
2022-11-24T10:48:24.495Z,92692.88
2022-11-24T10:51:16.108Z,92691.94
2022-11-24T10:53:44.419Z,92692.44
2022-11-24T10:56:12.145Z,92697.97
2022-11-24T10:58:39.640Z,92700.59
2022-11-24T11:01:13.360Z,92697.91
2022-11-24T11:03:51.305Z,92696.16
2022-11-24T11:06:29.860Z,92698.09
2022-11-24T11:09:06.960Z,92701.16
2022-11-24T11:11:36.181Z,92688.22
2022-11-24T11:14:10.418Z,92697.97
2022-11-24T11:16:43.838Z,92688.94
2022-11-24T11:19:55.467Z,92693.78
2022-11-24T11:22:32.116Z,92695.16
2022-11-24T11:25:19.429Z,92702.72
2022-11-24T11:27:46.688Z,92701.53
2022-11-24T11:36:16.122Z,92698.41
2022-11-24T11:38:44.461Z,92703.91
2022-11-24T11:41:30.983Z,92710.31
2022-11-24T11:44:26.277Z,92711.31
2022-11-24T11:46:58.874Z,92702.19
2022-11-24T11:49:26.765Z,92705.94
2022-11-24T11:52:13.847Z,92709.59
2022-11-24T11:55:12.489Z,92707.53
2022-11-24T11:57:58.203Z,92708.06
2022-11-24T12:00:25.893Z,92706.75
2022-11-24T12:03:31.089Z,92706.00
2022-11-24T12:06:15.550Z,92717.03
2022-11-24T12:09:19.458Z,92712.84
2022-11-24T12:12:18.042Z,92717.16
2022-11-24T12:15:24.141Z,92720.13
2022-11-24T12:17:55.047Z,92721.72
2022-11-24T12:20:56.693Z,92725.81
2022-11-24T12:23:40.701Z,92724.13
2022-11-24T12:26:53.775Z,92725.47
2022-11-24T12:29:48.413Z,92731.78
2022-11-24T12:32:29.776Z,92735.16
2022-11-24T12:35:15.639Z,92723.91
2022-11-24T12:38:21.479Z,92737.13
2022-11-24T12:43:58.754Z,92742.84
2022-11-24T12:46:45.209Z,92737.47
2022-11-24T12:49:38.560Z,92741.78
2022-11-24T12:52:22.876Z,92748.03
2022-11-24T12:54:50.568Z,92746.91
2022-11-24T12:57:53.307Z,92739.97
2022-11-24T13:00:37.481Z,92735.66
2022-11-24T13:03:10.275Z,92730.37
2022-11-24T13:05:47.315Z,92730.34
2022-11-24T13:08:15.660Z,92740.38
2022-11-24T13:10:58.834Z,92738.63
2022-11-24T13:14:02.446Z,92737.94
2022-11-24T13:16:48.562Z,92734.50
2022-11-24T13:19:22.045Z,92731.91
2022-11-24T13:22:07.071Z,92736.81
2022-11-24T13:24:36.974Z,92741.97
2022-11-24T13:27:27.827Z,92752.59
2022-11-24T13:29:55.564Z,92745.78
2022-11-24T13:32:23.268Z,92752.84
2022-11-24T13:34:55.174Z,92750.75
2022-11-24T13:37:31.808Z,92758.28
2022-11-24T13:40:14.346Z,92762.44
2022-11-24T13:43:03.159Z,92764.19
2022-11-24T13:45:40.204Z,92769.47
2022-11-24T13:48:28.469Z,92770.53
2022-11-24T13:51:09.520Z,92776.69
2022-11-24T13:53:49.218Z,92762.13
2022-11-24T13:56:16.451Z,92777.94
2022-11-24T13:58:44.102Z,92762.03
2022-11-24T14:01:22.180Z,92770.16
2022-11-24T14:04:35.361Z,92768.28
2022-11-24T14:09:55.868Z,92768.75
2022-11-24T14:12:25.419Z,92768.75
2022-11-24T14:14:57.036Z,92775.13
2022-11-24T14:17:28.976Z,92791.72
2022-11-24T14:19:58.322Z,92784.34
2022-11-24T14:22:35.302Z,92790.22
2022-11-24T14:25:04.015Z,92784.63
2022-11-24T14:27:33.851Z,92789.69
2022-11-24T14:30:18.656Z,92780.59
2022-11-24T14:32:56.101Z,92786.09
2022-11-24T14:35:25.471Z,92783.34
2022-11-24T14:37:53.212Z,92783.72
2022-11-24T14:40:41.080Z,92779.03
2022-11-24T14:43:22.912Z,92780.34
2022-11-24T14:45:59.516Z,92778.75
2022-11-24T14:48:34.897Z,92783.78
2022-11-24T14:51:13.682Z,92785.81
2022-11-24T14:53:43.383Z,92791.72
2022-11-24T14:56:30.854Z,92796.47
2022-11-24T14:58:59.516Z,92792.16
2022-11-24T15:01:27.305Z,92794.81
2022-11-24T15:07:21.023Z,92781.78
2022-11-24T15:09:48.368Z,92793.69
2022-11-24T15:12:28.957Z,92797.50
2022-11-24T15:15:05.487Z,92795.59
2022-11-24T15:17:33.400Z,92781.97
2022-11-24T15:20:17.236Z,92795.16
2022-11-24T15:22:45.280Z,92803.78
2022-11-24T15:25:33.949Z,92806.13
2022-11-24T15:28:01.714Z,92811.94
2022-11-24T15:30:30.354Z,92811.75
2022-11-24T15:32:59.535Z,92821.84
2022-11-24T15:35:31.793Z,92829.69
2022-11-24T15:37:59.233Z,92830.63
2022-11-24T15:40:26.901Z,92837.97
2022-11-24T15:42:56.032Z,92834.66
2022-11-24T15:45:26.709Z,92842.03
2022-11-24T15:47:54.415Z,92842.84
2022-11-24T15:50:22.233Z,92854.84
2022-11-24T15:52:49.707Z,92841.25
2022-11-24T15:55:22.568Z,92850.25
2022-11-24T15:57:49.947Z,92843.72
2022-11-24T16:00:22.979Z,92852.41
2022-11-24T16:02:50.932Z,92854.69
2022-11-24T16:05:18.661Z,92850.28
2022-11-24T16:07:46.198Z,92848.50
2022-11-24T16:10:23.935Z,92848.44
2022-11-24T16:12:51.321Z,92849.22
2022-11-24T16:15:19.306Z,92851.59
2022-11-24T16:17:46.967Z,92854.91
2022-11-24T16:20:14.745Z,92862.09
2022-11-24T16:22:42.785Z,92851.22
2022-11-24T16:25:10.858Z,92859.00
2022-11-24T16:27:38.514Z,92859.37
2022-11-24T16:30:07.440Z,92853.00
2022-11-24T16:32:35.250Z,92860.84
2022-11-24T16:35:04.825Z,92860.28
2022-11-24T16:37:33.122Z,92861.88
2022-11-24T16:40:02.657Z,92869.66
2022-11-24T16:42:30.887Z,92866.22
2022-11-24T16:44:58.780Z,92866.84
2022-11-24T16:47:26.074Z,92867.50
2022-11-24T16:49:53.617Z,92866.19
2022-11-24T16:52:21.282Z,92879.06
2022-11-24T16:54:48.694Z,92877.19
2022-11-24T16:57:17.101Z,92884.13
2022-11-24T16:59:48.877Z,92880.19
2022-11-24T17:02:16.297Z,92877.44
2022-11-24T17:04:43.660Z,92874.97
2022-11-24T17:07:11.436Z,92883.28
2022-11-24T17:09:40.739Z,92874.06
2022-11-24T17:12:08.393Z,92884.69
2022-11-24T17:14:37.055Z,92884.75
2022-11-24T17:17:04.951Z,92883.78
2022-11-24T17:19:32.415Z,92888.19
2022-11-24T17:22:00.686Z,92882.94
2022-11-24T17:24:28.567Z,92891.47
2022-11-24T17:26:55.987Z,92885.97
2022-11-24T17:29:24.828Z,92882.69
2022-11-24T17:31:52.383Z,92882.53
2022-11-24T17:34:19.815Z,92882.69
2022-11-24T17:36:47.639Z,92878.81
2022-11-24T17:39:18.002Z,92890.41
2022-11-24T17:41:48.227Z,92892.47
2022-11-24T17:44:16.053Z,92882.37
2022-11-24T17:46:43.475Z,92883.69
2022-11-24T17:49:13.694Z,92887.13
2022-11-24T17:51:41.405Z,92873.22
2022-11-24T17:54:44.806Z,92871.38
2022-11-24T17:56:57.239Z,92877.94
2022-11-24T17:59:24.597Z,92876.19
2022-11-24T18:01:52.383Z,92880.06
2022-11-24T18:04:20.531Z,92881.22
2022-11-24T18:06:47.810Z,92885.22
2022-11-24T18:09:15.470Z,92878.50
2022-11-24T18:11:43.306Z,92882.09
2022-11-24T18:14:10.674Z,92871.16
2022-11-24T18:16:38.065Z,92875.34
2022-11-24T18:19:10.991Z,92873.44
2022-11-24T18:21:40.663Z,92880.47
2022-11-24T18:24:09.767Z,92873.25
2022-11-24T18:26:37.934Z,92873.63
2022-11-24T18:29:05.522Z,92878.34
2022-11-24T18:31:35.664Z,92886.56
2022-11-24T18:34:05.396Z,92895.00
2022-11-24T18:36:34.520Z,92892.78
2022-11-24T18:39:03.712Z,92906.28
2022-11-24T18:41:31.141Z,92899.34
2022-11-24T18:44:02.539Z,92898.50
2022-11-24T18:46:30.198Z,92898.09
2022-11-24T18:48:57.931Z,92905.81
2022-11-24T18:51:27.312Z,92908.41
2022-11-24T18:53:54.972Z,92913.91
2022-11-24T18:56:22.616Z,92905.03
2022-11-24T18:58:54.821Z,92906.28
2022-11-24T19:01:25.456Z,92904.53
2022-11-24T19:03:57.276Z,92907.72
2022-11-24T19:06:33.780Z,92915.13
2022-11-24T19:09:05.510Z,92905.50
2022-11-24T19:11:35.955Z,92906.22
2022-11-24T19:14:06.041Z,92910.06
2022-11-24T19:16:34.158Z,92906.66
2022-11-24T19:19:03.191Z,92903.69
2022-11-24T19:21:32.976Z,92900.56
2022-11-24T19:24:04.797Z,92905.28
2022-11-24T19:26:37.654Z,92890.56
2022-11-24T19:29:05.884Z,92906.09
2022-11-24T19:31:34.669Z,92900.91
2022-11-24T19:34:03.212Z,92906.41
2022-11-24T19:36:31.132Z,92900.09
2022-11-24T19:38:59.156Z,92917.00
2022-11-24T19:41:28.947Z,92920.00
2022-11-24T19:43:56.871Z,92919.75
2022-11-24T19:46:27.657Z,92926.19
2022-11-24T19:48:59.496Z,92924.19
2022-11-24T19:51:32.849Z,92935.31
2022-11-24T19:54:00.980Z,92930.97
2022-11-24T19:56:31.640Z,92936.03
2022-11-24T19:58:59.128Z,92929.34
2022-11-24T20:01:32.086Z,92931.75
2022-11-24T20:04:01.213Z,92932.66
2022-11-24T20:06:31.360Z,92946.22
2022-11-24T20:09:00.810Z,92944.47
2022-11-24T20:11:29.292Z,92929.25
2022-11-24T20:13:58.014Z,92943.69
2022-11-24T20:16:29.752Z,92946.47
2022-11-24T20:19:01.035Z,92943.19
2022-11-24T20:21:31.711Z,92939.22
2022-11-24T20:24:20.638Z,92935.25
2022-11-24T20:26:51.672Z,92938.84
2022-11-24T20:29:19.774Z,92950.59
2022-11-24T20:31:50.529Z,92936.84
2022-11-24T20:34:18.699Z,92942.47
2022-11-24T20:36:47.718Z,92936.37
2022-11-24T20:39:18.785Z,92944.78
2022-11-24T20:41:46.949Z,92940.59
2022-11-24T20:44:17.046Z,92944.66
2022-11-24T20:46:45.851Z,92951.81
2022-11-24T20:49:16.996Z,92940.06
2022-11-24T20:51:47.220Z,92948.63
2022-11-24T20:54:17.170Z,92940.34
2022-11-24T20:56:46.710Z,92956.41
2022-11-24T20:59:19.629Z,92946.75
2022-11-24T21:01:48.766Z,92962.25
2022-11-24T21:04:21.534Z,92948.59
2022-11-24T21:06:49.480Z,92964.63
2022-11-24T21:09:17.551Z,92964.47
2022-11-24T21:11:45.313Z,92960.88
2022-11-24T21:14:13.570Z,92976.25
2022-11-24T21:16:42.187Z,92976.22
2022-11-24T21:19:15.198Z,92977.50
2022-11-24T21:21:43.269Z,92978.59
2022-11-24T21:24:16.350Z,92985.91
2022-11-24T21:26:47.667Z,92989.94
2022-11-24T21:29:18.023Z,92984.94
2022-11-24T21:31:45.805Z,92989.78
2022-11-24T21:34:19.122Z,92991.84
2022-11-24T21:36:47.348Z,92984.59
2022-11-24T21:39:15.520Z,92989.72
2022-11-24T21:41:43.457Z,92987.03
2022-11-24T21:44:13.214Z,92981.78
2022-11-24T21:46:46.244Z,92981.09
2022-11-24T21:49:18.837Z,92988.78
2022-11-24T21:51:46.176Z,92974.22
2022-11-24T21:54:13.693Z,92980.31
2022-11-24T21:56:41.409Z,92977.28
2022-11-24T21:59:08.871Z,92974.41
2022-11-24T22:01:36.268Z,92971.03
2022-11-24T22:04:04.108Z,92986.53
2022-11-24T22:06:33.472Z,92975.47
2022-11-24T22:09:00.701Z,92979.13
2022-11-24T22:11:28.329Z,92968.97
2022-11-24T22:13:55.625Z,92981.09
2022-11-24T22:16:24.511Z,92970.22
2022-11-24T22:18:52.077Z,92986.22
2022-11-24T22:21:25.815Z,92988.22
2022-11-24T22:23:53.746Z,92987.47
2022-11-24T22:26:22.893Z,92991.72
2022-11-24T22:28:51.127Z,92996.50
2022-11-24T22:31:30.943Z,92993.12
2022-11-24T22:33:59.742Z,93011.25
2022-11-24T22:36:29.210Z,93004.50
2022-11-24T22:38:58.544Z,93001.09
2022-11-24T22:41:25.663Z,93003.69
2022-11-24T22:43:53.923Z,92999.72
2022-11-24T22:46:27.131Z,92989.19
2022-11-24T22:48:55.619Z,93001.66
2022-11-24T22:51:26.295Z,93009.88
2022-11-24T22:53:58.288Z,93003.69
2022-11-24T22:56:32.544Z,93016.09
2022-11-24T22:59:00.882Z,93009.88
2022-11-24T23:01:29.691Z,93007.22
2022-11-24T23:03:57.513Z,93007.88
2022-11-24T23:06:29.658Z,93008.41
2022-11-24T23:08:58.693Z,93009.53
2022-11-24T23:11:36.554Z,93010.47
2022-11-24T23:14:06.604Z,93018.41
2022-11-24T23:16:34.111Z,92998.97
2022-11-24T23:19:01.370Z,93006.34
2022-11-24T23:21:31.266Z,93000.38
2022-11-24T23:24:00.345Z,93019.31
2022-11-24T23:26:30.476Z,93014.91
2022-11-24T23:28:58.414Z,93013.97
2022-11-24T23:31:30.283Z,93017.50
2022-11-24T23:33:59.794Z,93018.31
2022-11-24T23:36:28.214Z,93013.69
2022-11-24T23:38:55.848Z,93019.47
2022-11-24T23:41:25.407Z,93021.28
2022-11-24T23:43:53.371Z,93017.09
2022-11-24T23:46:23.189Z,93020.16
2022-11-24T23:48:53.042Z,93020.94
2022-11-24T23:51:31.600Z,93017.56
2022-11-24T23:54:00.215Z,93027.84
2022-11-24T23:56:32.775Z,93011.19
2022-11-24T23:59:04.902Z,93021.06
